TimeICT,TemperatureF,Dew PointF,Humidity,Sea Level PressureIn,VisibilityMPH,Wind Direction,Wind SpeedMPH,Gust SpeedMPH,PrecipitationIn,Events,Conditions,WindDirDegrees,DateUTC
12:00 AM,82.4,75.2,79,29.83,6.2,SSW,4.6,-,N/A,,Scattered Clouds,210,2012-11-09 17:00:00
12:30 AM,84.2,75.2,74,29.83,6.2,SSW,8.1,-,N/A,,Scattered Clouds,200,2012-11-09 17:30:00
1:00 AM,82,76,77,29.81,6,Calm,Calm,,,,Clear,,2012-11-09 18:00:00
1:00 AM,84.2,75.2,74,29.83,6.2,SSW,10.4,-,N/A,,Scattered Clouds,210,2012-11-09 18:00:00
1:30 AM,86.0,75.2,70,29.83,6.2,SW,6.9,-,N/A,,Scattered Clouds,230,2012-11-09 18:30:00
2:00 AM,82.4,75.2,79,29.80,6.2,SSW,4.6,-,N/A,,Scattered Clouds,200,2012-11-09 19:00:00
2:30 AM,82.4,75.2,79,29.80,6.2,South,4.6,-,N/A,,Scattered Clouds,170,2012-11-09 19:30:00
3:00 AM,82.4,75.2,79,29.80,6.2,South,4.6,-,N/A,,Scattered Clouds,170,2012-11-09 20:00:00
3:30 AM,82.4,75.2,79,29.77,6.2,South,3.5,-,N/A,,Scattered Clouds,190,2012-11-09 20:30:00
4:00 AM,80.6,75.2,84,29.77,6.2,South,2.3,-,N/A,,Scattered Clouds,190,2012-11-09 21:00:00
4:30 AM,80.6,75.2,84,29.77,6.2,Calm,Calm,-,N/A,,Scattered Clouds,0,2012-11-09 21:30:00
5:00 AM,80.6,75.2,84,29.80,6.2,Calm,Calm,-,N/A,,Scattered Clouds,0,2012-11-09 22:00:00
5:30 AM,80.6,75.2,84,29.80,6.2,Calm,Calm,-,N/A,,Scattered Clouds,0,2012-11-09 22:30:00
6:00 AM,80.6,75.2,84,29.83,-9999.0,Calm,Calm,-,N/A,,Clear,0,2012-11-09 23:00:00
6:30 AM,80.6,75.2,84,29.83,5.0,Calm,Calm,-,N/A,,Unknown,0,2012-11-09 23:30:00
7:00 AM,81,75,78,29.84,6,Calm,Calm,,,,Clear,,2012-11-10 00:00:00
7:00 AM,80.6,77.0,89,29.86,5.0,Variable,2.3,-,N/A,,Unknown,0,2012-11-10 00:00:00
7:30 AM,82.4,77.0,84,29.86,5.0,NE,5.8,-,N/A,,Scattered Clouds,40,2012-11-10 00:30:00
8:00 AM,82.4,77.0,84,29.86,5.0,NNE,4.6,-,N/A,,Scattered Clouds,20,2012-11-10 01:00:00
8:30 AM,86.0,78.8,79,29.89,5.6,ENE,3.5,-,N/A,,Scattered Clouds,70,2012-11-10 01:30:00
9:00 AM,87.8,77.0,70,29.89,6.2,ENE,3.5,-,N/A,,Scattered Clouds,60,2012-11-10 02:00:00
9:30 AM,87.8,75.2,66,29.92,6.2,ESE,4.6,-,N/A,,Scattered Clouds,120,2012-11-10 02:30:00
10:00 AM,89.6,75.2,62,29.92,6.2,SE,4.6,-,N/A,,Scattered Clouds,130,2012-11-10 03:00:00
10:30 AM,89.6,75.2,62,29.89,6.2,ESE,4.6,-,N/A,,Scattered Clouds,110,2012-11-10 03:30:00
11:00 AM,91.4,73.4,55,29.89,6.2,South,5.8,-,N/A,,Scattered Clouds,170,2012-11-10 04:00:00
11:30 AM,91.4,75.2,59,29.86,6.2,Variable,3.5,-,N/A,,Scattered Clouds,0,2012-11-10 04:30:00
12:00 PM,91.4,75.2,59,29.86,6.2,South,5.8,-,N/A,,Scattered Clouds,180,2012-11-10 05:00:00
12:30 PM,93.2,73.4,52,29.83,6.2,Variable,2.3,-,N/A,,Scattered Clouds,0,2012-11-10 05:30:00
1:00 PM,93,77,52,29.81,6,NW,3.5,,,,Partly Cloudy,320,2012-11-10 06:00:00
1:00 PM,93.2,73.4,52,29.80,6.2,SE,4.6,-,N/A,,Scattered Clouds,140,2012-11-10 06:00:00
1:30 PM,95.0,71.6,47,29.80,6.2,South,4.6,-,N/A,,Scattered Clouds,180,2012-11-10 06:30:00
2:00 PM,95.0,69.8,44,29.77,6.2,SSE,4.6,-,N/A,,Scattered Clouds,150,2012-11-10 07:00:00
2:30 PM,95.0,69.8,44,29.77,6.2,SE,4.6,-,N/A,,Scattered Clouds,130,2012-11-10 07:30:00
3:00 PM,95.0,69.8,44,29.77,6.2,SE,4.6,-,N/A,,Scattered Clouds,140,2012-11-10 08:00:00
3:30 PM,95.0,69.8,44,29.74,6.2,SSE,3.5,-,N/A,,Scattered Clouds,150,2012-11-10 08:30:00
4:00 PM,93.2,68.0,44,29.74,6.2,East,3.5,-,N/A,,Scattered Clouds,90,2012-11-10 09:00:00
4:30 PM,95.0,69.8,44,29.74,6.2,East,4.6,-,N/A,,Scattered Clouds,100,2012-11-10 09:30:00
5:00 PM,93.2,71.6,49,29.74,6.2,East,2.3,-,N/A,,Scattered Clouds,100,2012-11-10 10:00:00
5:30 PM,91.4,71.6,52,29.74,6.2,SE,4.6,-,N/A,,Scattered Clouds,140,2012-11-10 10:30:00
6:00 PM,89.6,73.4,59,29.77,6.2,SW,9.2,-,N/A,,Scattered Clouds,220,2012-11-10 11:00:00
6:30 PM,87.8,75.2,66,29.77,6.2,SW,9.2,-,N/A,,Scattered Clouds,220,2012-11-10 11:30:00
7:00 PM,88,78,65,29.78,6,Calm,Calm,,,,,,2012-11-10 12:00:00
7:00 PM,87.8,75.2,66,29.80,6.2,SW,6.9,-,N/A,,Scattered Clouds,220,2012-11-10 12:00:00
7:30 PM,87.8,75.2,66,29.80,6.2,SSW,6.9,-,N/A,,Scattered Clouds,210,2012-11-10 12:30:00
8:00 PM,87.8,75.2,66,29.83,6.2,SSW,8.1,-,N/A,,Scattered Clouds,210,2012-11-10 13:00:00
8:30 PM,87.8,75.2,66,29.83,6.2,SSW,6.9,-,N/A,,Scattered Clouds,210,2012-11-10 13:30:00
9:00 PM,86.0,75.2,70,29.86,6.2,South,5.8,-,N/A,,Scattered Clouds,190,2012-11-10 14:00:00
9:30 PM,86.0,75.2,70,29.86,6.2,South,6.9,-,N/A,,Scattered Clouds,190,2012-11-10 14:30:00
10:00 PM,86.0,75.2,70,29.86,6.2,South,6.9,-,N/A,,Scattered Clouds,190,2012-11-10 15:00:00
10:30 PM,84.2,75.2,74,29.86,6.2,South,5.8,-,N/A,,Scattered Clouds,190,2012-11-10 15:30:00
11:00 PM,84.2,75.2,74,29.86,6.2,South,6.9,-,N/A,,Scattered Clouds,190,2012-11-10 16:00:00
11:30 PM,84.2,75.2,74,29.83,6.2,SSW,5.8,-,N/A,,Scattered Clouds,210,2012-11-10 16:30:00